sensor_id;sensor_type;location;lat;lon;timestamp;P1;durP1;ratioP1;P2;durP2;ratioP2
37231;SDS011;23125;48.156;15.954;2023-06-14T00:01:52;3.53;;;2.63;;
37231;SDS011;23125;48.156;15.954;2023-06-14T00:04:18;3.65;;;2.90;;
37231;SDS011;23125;48.156;15.954;2023-06-14T00:06:46;3.88;;;2.53;;
37231;SDS011;23125;48.156;15.954;2023-06-14T00:09:13;4.97;;;3.47;;
37231;SDS011;23125;48.156;15.954;2023-06-14T00:11:42;4.03;;;2.47;;
37231;SDS011;23125;48.156;15.954;2023-06-14T00:14:08;4.63;;;2.58;;
37231;SDS011;23125;48.156;15.954;2023-06-14T00:16:34;3.78;;;2.83;;
37231;SDS011;23125;48.156;15.954;2023-06-14T00:19:03;4.40;;;2.30;;
37231;SDS011;23125;48.156;15.954;2023-06-14T00:21:30;3.20;;;2.70;;
37231;SDS011;23125;48.156;15.954;2023-06-14T00:23:57;3.67;;;2.70;;
37231;SDS011;23125;48.156;15.954;2023-06-14T00:26:23;4.90;;;3.28;;
37231;SDS011;23125;48.156;15.954;2023-06-14T00:28:51;4.72;;;3.58;;
37231;SDS011;23125;48.156;15.954;2023-06-14T00:31:18;4.25;;;3.13;;
37231;SDS011;23125;48.156;15.954;2023-06-14T00:33:45;5.05;;;3.25;;
37231;SDS011;23125;48.156;15.954;2023-06-14T00:36:10;5.45;;;3.35;;
37231;SDS011;23125;48.156;15.954;2023-06-14T00:38:36;5.78;;;3.38;;
37231;SDS011;23125;48.156;15.954;2023-06-14T00:41:02;4.63;;;3.28;;
37231;SDS011;23125;48.156;15.954;2023-06-14T00:43:28;4.05;;;3.20;;
37231;SDS011;23125;48.156;15.954;2023-06-14T00:45:54;5.82;;;3.50;;
37231;SDS011;23125;48.156;15.954;2023-06-14T00:48:20;5.50;;;3.33;;
37231;SDS011;23125;48.156;15.954;2023-06-14T00:50:47;5.93;;;3.45;;
37231;SDS011;23125;48.156;15.954;2023-06-14T00:53:15;7.07;;;3.47;;
37231;SDS011;23125;48.156;15.954;2023-06-14T00:55:43;4.43;;;3.42;;
37231;SDS011;23125;48.156;15.954;2023-06-14T00:58:09;4.40;;;3.45;;
37231;SDS011;23125;48.156;15.954;2023-06-14T01:00:36;4.57;;;3.13;;
37231;SDS011;23125;48.156;15.954;2023-06-14T01:03:02;5.82;;;3.80;;
37231;SDS011;23125;48.156;15.954;2023-06-14T01:05:29;3.80;;;3.40;;
37231;SDS011;23125;48.156;15.954;2023-06-14T01:10:57;7.25;;;3.50;;
37231;SDS011;23125;48.156;15.954;2023-06-14T01:16:01;5.57;;;3.40;;
37231;SDS011;23125;48.156;15.954;2023-06-14T01:18:28;6.07;;;3.55;;
37231;SDS011;23125;48.156;15.954;2023-06-14T01:20:55;4.30;;;3.30;;
37231;SDS011;23125;48.156;15.954;2023-06-14T01:23:21;5.57;;;3.53;;
37231;SDS011;23125;48.156;15.954;2023-06-14T01:25:48;5.07;;;3.65;;
37231;SDS011;23125;48.156;15.954;2023-06-14T01:28:18;4.10;;;2.97;;
37231;SDS011;23125;48.156;15.954;2023-06-14T01:30:46;5.35;;;3.70;;
37231;SDS011;23125;48.156;15.954;2023-06-14T01:33:19;5.18;;;3.10;;
37231;SDS011;23125;48.156;15.954;2023-06-14T01:35:47;4.15;;;3.30;;
37231;SDS011;23125;48.156;15.954;2023-06-14T01:38:15;4.15;;;3.00;;
37231;SDS011;23125;48.156;15.954;2023-06-14T01:40:44;4.95;;;3.65;;
37231;SDS011;23125;48.156;15.954;2023-06-14T01:43:13;4.22;;;3.22;;
37231;SDS011;23125;48.156;15.954;2023-06-14T01:45:40;5.97;;;3.67;;
37231;SDS011;23125;48.156;15.954;2023-06-14T01:48:08;4.25;;;3.58;;
37231;SDS011;23125;48.156;15.954;2023-06-14T01:50:35;4.18;;;3.30;;
37231;SDS011;23125;48.156;15.954;2023-06-14T01:53:00;4.40;;;3.28;;
37231;SDS011;23125;48.156;15.954;2023-06-14T01:55:26;5.50;;;3.47;;
37231;SDS011;23125;48.156;15.954;2023-06-14T01:57:52;3.90;;;3.30;;
37231;SDS011;23125;48.156;15.954;2023-06-14T02:00:19;3.47;;;3.03;;
37231;SDS011;23125;48.156;15.954;2023-06-14T02:02:47;4.10;;;3.28;;
37231;SDS011;23125;48.156;15.954;2023-06-14T02:05:14;5.82;;;3.40;;
37231;SDS011;23125;48.156;15.954;2023-06-14T02:07:44;6.03;;;3.80;;
37231;SDS011;23125;48.156;15.954;2023-06-14T02:10:10;5.22;;;3.80;;
37231;SDS011;23125;48.156;15.954;2023-06-14T02:12:36;4.82;;;3.17;;
37231;SDS011;23125;48.156;15.954;2023-06-14T02:15:02;5.50;;;3.83;;
37231;SDS011;23125;48.156;15.954;2023-06-14T02:17:29;5.03;;;3.85;;
37231;SDS011;23125;48.156;15.954;2023-06-14T02:19:55;4.25;;;3.13;;
37231;SDS011;23125;48.156;15.954;2023-06-14T02:22:22;5.93;;;3.20;;
37231;SDS011;23125;48.156;15.954;2023-06-14T02:24:48;5.68;;;3.58;;
37231;SDS011;23125;48.156;15.954;2023-06-14T02:27:15;4.65;;;3.22;;
37231;SDS011;23125;48.156;15.954;2023-06-14T02:29:42;4.45;;;3.83;;
37231;SDS011;23125;48.156;15.954;2023-06-14T02:32:08;4.70;;;3.72;;
37231;SDS011;23125;48.156;15.954;2023-06-14T02:34:34;4.35;;;3.45;;
37231;SDS011;23125;48.156;15.954;2023-06-14T02:37:00;5.28;;;3.35;;
37231;SDS011;23125;48.156;15.954;2023-06-14T02:39:28;4.63;;;3.47;;
37231;SDS011;23125;48.156;15.954;2023-06-14T02:41:55;3.50;;;3.05;;
37231;SDS011;23125;48.156;15.954;2023-06-14T02:44:24;3.60;;;3.25;;
37231;SDS011;23125;48.156;15.954;2023-06-14T02:46:52;4.38;;;3.15;;
37231;SDS011;23125;48.156;15.954;2023-06-14T02:49:18;3.22;;;2.92;;
37231;SDS011;23125;48.156;15.954;2023-06-14T02:51:44;4.38;;;2.90;;
37231;SDS011;23125;48.156;15.954;2023-06-14T02:54:10;4.03;;;3.30;;
37231;SDS011;23125;48.156;15.954;2023-06-14T02:56:36;4.82;;;3.45;;
37231;SDS011;23125;48.156;15.954;2023-06-14T02:59:02;3.97;;;3.15;;
37231;SDS011;23125;48.156;15.954;2023-06-14T03:01:28;5.20;;;3.50;;
37231;SDS011;23125;48.156;15.954;2023-06-14T03:04:00;4.40;;;3.15;;
37231;SDS011;23125;48.156;15.954;2023-06-14T03:06:28;4.28;;;3.47;;
37231;SDS011;23125;48.156;15.954;2023-06-14T03:08:56;5.30;;;3.40;;
37231;SDS011;23125;48.156;15.954;2023-06-14T03:11:26;5.03;;;3.90;;
37231;SDS011;23125;48.156;15.954;2023-06-14T03:13:53;4.25;;;3.50;;
37231;SDS011;23125;48.156;15.954;2023-06-14T03:16:20;4.40;;;3.70;;
37231;SDS011;23125;48.156;15.954;2023-06-14T03:18:48;4.93;;;3.63;;
37231;SDS011;23125;48.156;15.954;2023-06-14T03:21:14;5.03;;;3.05;;
37231;SDS011;23125;48.156;15.954;2023-06-14T03:23:41;5.60;;;3.50;;
37231;SDS011;23125;48.156;15.954;2023-06-14T03:26:08;4.82;;;3.42;;
37231;SDS011;23125;48.156;15.954;2023-06-14T03:28:34;4.82;;;3.53;;
37231;SDS011;23125;48.156;15.954;2023-06-14T03:30:59;6.25;;;3.50;;
37231;SDS011;23125;48.156;15.954;2023-06-14T03:33:26;4.80;;;3.28;;
37231;SDS011;23125;48.156;15.954;2023-06-14T03:35:52;4.43;;;3.35;;
37231;SDS011;23125;48.156;15.954;2023-06-14T03:38:18;5.07;;;3.45;;
37231;SDS011;23125;48.156;15.954;2023-06-14T03:40:44;4.28;;;3.40;;
37231;SDS011;23125;48.156;15.954;2023-06-14T03:43:10;6.28;;;3.50;;
37231;SDS011;23125;48.156;15.954;2023-06-14T03:45:36;4.57;;;3.50;;
37231;SDS011;23125;48.156;15.954;2023-06-14T03:48:02;3.80;;;3.40;;
37231;SDS011;23125;48.156;15.954;2023-06-14T03:50:28;4.20;;;3.60;;
37231;SDS011;23125;48.156;15.954;2023-06-14T03:52:54;5.00;;;3.15;;
37231;SDS011;23125;48.156;15.954;2023-06-14T03:55:20;5.47;;;3.30;;
37231;SDS011;23125;48.156;15.954;2023-06-14T03:57:46;3.30;;;2.95;;
37231;SDS011;23125;48.156;15.954;2023-06-14T04:00:12;4.03;;;3.33;;
37231;SDS011;23125;48.156;15.954;2023-06-14T04:02:38;4.75;;;3.63;;
37231;SDS011;23125;48.156;15.954;2023-06-14T04:05:04;7.30;;;3.50;;
37231;SDS011;23125;48.156;15.954;2023-06-14T04:10:08;4.38;;;3.33;;
37231;SDS011;23125;48.156;15.954;2023-06-14T04:12:34;3.80;;;3.13;;
37231;SDS011;23125;48.156;15.954;2023-06-14T04:15:00;8.52;;;3.72;;
37231;SDS011;23125;48.156;15.954;2023-06-14T04:17:26;3.80;;;3.28;;
37231;SDS011;23125;48.156;15.954;2023-06-14T04:19:52;4.72;;;3.60;;
37231;SDS011;23125;48.156;15.954;2023-06-14T04:22:17;4.15;;;3.42;;
37231;SDS011;23125;48.156;15.954;2023-06-14T04:24:43;8.07;;;3.75;;
37231;SDS011;23125;48.156;15.954;2023-06-14T04:27:10;5.10;;;3.30;;
37231;SDS011;23125;48.156;15.954;2023-06-14T04:29:36;5.60;;;3.42;;
37231;SDS011;23125;48.156;15.954;2023-06-14T04:32:01;6.22;;;4.07;;
37231;SDS011;23125;48.156;15.954;2023-06-14T04:34:27;6.25;;;3.35;;
37231;SDS011;23125;48.156;15.954;2023-06-14T04:36:59;4.60;;;3.38;;
37231;SDS011;23125;48.156;15.954;2023-06-14T04:39:26;3.42;;;2.72;;
37231;SDS011;23125;48.156;15.954;2023-06-14T04:41:52;4.43;;;3.35;;
37231;SDS011;23125;48.156;15.954;2023-06-14T04:44:23;6.15;;;3.97;;
37231;SDS011;23125;48.156;15.954;2023-06-14T04:46:56;7.00;;;3.90;;
37231;SDS011;23125;48.156;15.954;2023-06-14T04:49:24;6.63;;;3.50;;
37231;SDS011;23125;48.156;15.954;2023-06-14T04:51:52;5.73;;;4.00;;
37231;SDS011;23125;48.156;15.954;2023-06-14T04:54:26;5.35;;;3.33;;
37231;SDS011;23125;48.156;15.954;2023-06-14T04:56:53;5.38;;;4.30;;
37231;SDS011;23125;48.156;15.954;2023-06-14T04:59:20;5.10;;;3.47;;
37231;SDS011;23125;48.156;15.954;2023-06-14T05:01:49;5.93;;;3.78;;
37231;SDS011;23125;48.156;15.954;2023-06-14T05:04:17;4.82;;;3.47;;
37231;SDS011;23125;48.156;15.954;2023-06-14T05:06:43;5.47;;;3.50;;
37231;SDS011;23125;48.156;15.954;2023-06-14T05:09:13;6.03;;;4.45;;
37231;SDS011;23125;48.156;15.954;2023-06-14T05:11:43;4.70;;;3.83;;
37231;SDS011;23125;48.156;15.954;2023-06-14T05:14:10;6.22;;;3.90;;
37231;SDS011;23125;48.156;15.954;2023-06-14T05:16:36;6.50;;;4.07;;
37231;SDS011;23125;48.156;15.954;2023-06-14T05:19:02;6.70;;;3.80;;
37231;SDS011;23125;48.156;15.954;2023-06-14T05:21:32;5.30;;;3.78;;
37231;SDS011;23125;48.156;15.954;2023-06-14T05:23:59;6.35;;;3.83;;
37231;SDS011;23125;48.156;15.954;2023-06-14T05:26:26;8.18;;;4.32;;
37231;SDS011;23125;48.156;15.954;2023-06-14T05:28:58;5.85;;;3.80;;
37231;SDS011;23125;48.156;15.954;2023-06-14T05:31:26;6.20;;;3.63;;
37231;SDS011;23125;48.156;15.954;2023-06-14T05:33:53;5.70;;;3.70;;
37231;SDS011;23125;48.156;15.954;2023-06-14T05:36:20;5.80;;;3.65;;
37231;SDS011;23125;48.156;15.954;2023-06-14T05:38:49;4.00;;;3.28;;
37231;SDS011;23125;48.156;15.954;2023-06-14T05:41:16;4.78;;;3.65;;
37231;SDS011;23125;48.156;15.954;2023-06-14T05:43:42;3.83;;;3.05;;
37231;SDS011;23125;48.156;15.954;2023-06-14T05:46:08;7.68;;;3.75;;
37231;SDS011;23125;48.156;15.954;2023-06-14T05:48:34;4.13;;;3.30;;
37231;SDS011;23125;48.156;15.954;2023-06-14T05:50:59;5.28;;;3.22;;
37231;SDS011;23125;48.156;15.954;2023-06-14T05:53:25;5.43;;;3.42;;
37231;SDS011;23125;48.156;15.954;2023-06-14T05:55:51;4.50;;;3.08;;
37231;SDS011;23125;48.156;15.954;2023-06-14T05:58:19;3.63;;;2.97;;
37231;SDS011;23125;48.156;15.954;2023-06-14T06:00:45;4.65;;;3.08;;
37231;SDS011;23125;48.156;15.954;2023-06-14T06:03:11;3.88;;;3.13;;
37231;SDS011;23125;48.156;15.954;2023-06-14T06:05:38;5.22;;;2.83;;
37231;SDS011;23125;48.156;15.954;2023-06-14T06:08:05;3.40;;;3.10;;
37231;SDS011;23125;48.156;15.954;2023-06-14T06:10:31;5.18;;;2.85;;
37231;SDS011;23125;48.156;15.954;2023-06-14T06:12:57;3.20;;;2.83;;
37231;SDS011;23125;48.156;15.954;2023-06-14T06:15:23;3.13;;;2.83;;
37231;SDS011;23125;48.156;15.954;2023-06-14T06:17:49;3.10;;;2.80;;
37231;SDS011;23125;48.156;15.954;2023-06-14T06:20:16;4.40;;;3.60;;
37231;SDS011;23125;48.156;15.954;2023-06-14T06:22:42;4.32;;;2.97;;
37231;SDS011;23125;48.156;15.954;2023-06-14T06:25:08;3.53;;;2.60;;
37231;SDS011;23125;48.156;15.954;2023-06-14T06:27:34;3.60;;;2.80;;
37231;SDS011;23125;48.156;15.954;2023-06-14T06:30:03;5.10;;;3.03;;
37231;SDS011;23125;48.156;15.954;2023-06-14T06:32:29;3.75;;;2.70;;
37231;SDS011;23125;48.156;15.954;2023-06-14T06:34:55;5.78;;;2.78;;
37231;SDS011;23125;48.156;15.954;2023-06-14T06:37:21;4.43;;;2.67;;
37231;SDS011;23125;48.156;15.954;2023-06-14T06:39:46;6.45;;;3.33;;
37231;SDS011;23125;48.156;15.954;2023-06-14T06:42:13;4.60;;;2.45;;
37231;SDS011;23125;48.156;15.954;2023-06-14T06:44:39;3.20;;;2.72;;
37231;SDS011;23125;48.156;15.954;2023-06-14T06:47:05;3.38;;;2.75;;
37231;SDS011;23125;48.156;15.954;2023-06-14T06:49:31;4.43;;;2.92;;
37231;SDS011;23125;48.156;15.954;2023-06-14T06:52:00;3.50;;;2.53;;
37231;SDS011;23125;48.156;15.954;2023-06-14T06:54:27;2.80;;;2.50;;
37231;SDS011;23125;48.156;15.954;2023-06-14T06:56:53;6.28;;;3.40;;
37231;SDS011;23125;48.156;15.954;2023-06-14T06:59:19;4.97;;;3.15;;
37231;SDS011;23125;48.156;15.954;2023-06-14T07:01:45;4.50;;;3.08;;
37231;SDS011;23125;48.156;15.954;2023-06-14T07:04:12;3.47;;;3.00;;
37231;SDS011;23125;48.156;15.954;2023-06-14T07:06:38;4.32;;;2.90;;
37231;SDS011;23125;48.156;15.954;2023-06-14T07:09:04;6.65;;;2.85;;
37231;SDS011;23125;48.156;15.954;2023-06-14T07:11:33;4.63;;;3.08;;
37231;SDS011;23125;48.156;15.954;2023-06-14T07:13:59;3.45;;;2.42;;
37231;SDS011;23125;48.156;15.954;2023-06-14T07:16:25;3.72;;;2.47;;
37231;SDS011;23125;48.156;15.954;2023-06-14T07:18:51;4.25;;;2.75;;
37231;SDS011;23125;48.156;15.954;2023-06-14T07:21:17;4.40;;;2.90;;
37231;SDS011;23125;48.156;15.954;2023-06-14T07:23:43;3.20;;;2.45;;
37231;SDS011;23125;48.156;15.954;2023-06-14T07:26:09;3.15;;;2.65;;
37231;SDS011;23125;48.156;15.954;2023-06-14T07:28:35;3.50;;;2.30;;
37231;SDS011;23125;48.156;15.954;2023-06-14T07:31:01;2.95;;;2.60;;
37231;SDS011;23125;48.156;15.954;2023-06-14T07:33:28;3.58;;;2.75;;
37231;SDS011;23125;48.156;15.954;2023-06-14T07:35:53;6.20;;;2.88;;
37231;SDS011;23125;48.156;15.954;2023-06-14T07:38:19;3.92;;;2.50;;
37231;SDS011;23125;48.156;15.954;2023-06-14T07:40:45;4.07;;;2.63;;
37231;SDS011;23125;48.156;15.954;2023-06-14T07:43:11;5.78;;;2.58;;
37231;SDS011;23125;48.156;15.954;2023-06-14T07:45:37;6.03;;;2.72;;
37231;SDS011;23125;48.156;15.954;2023-06-14T07:48:03;4.65;;;2.45;;
37231;SDS011;23125;48.156;15.954;2023-06-14T07:50:29;3.80;;;2.88;;
37231;SDS011;23125;48.156;15.954;2023-06-14T07:52:55;3.75;;;2.60;;
37231;SDS011;23125;48.156;15.954;2023-06-14T07:55:21;3.63;;;2.83;;
37231;SDS011;23125;48.156;15.954;2023-06-14T07:57:47;3.17;;;2.53;;
37231;SDS011;23125;48.156;15.954;2023-06-14T08:00:13;2.50;;;2.28;;
37231;SDS011;23125;48.156;15.954;2023-06-14T08:02:42;3.70;;;2.60;;
37231;SDS011;23125;48.156;15.954;2023-06-14T08:05:10;2.42;;;2.15;;
37231;SDS011;23125;48.156;15.954;2023-06-14T08:07:37;2.85;;;2.55;;
37231;SDS011;23125;48.156;15.954;2023-06-14T08:10:04;7.40;;;2.67;;
37231;SDS011;23125;48.156;15.954;2023-06-14T08:12:32;3.50;;;2.45;;
37231;SDS011;23125;48.156;15.954;2023-06-14T08:14:59;3.08;;;2.75;;
37231;SDS011;23125;48.156;15.954;2023-06-14T08:17:25;4.35;;;2.42;;
37231;SDS011;23125;48.156;15.954;2023-06-14T08:19:52;4.53;;;2.40;;
37231;SDS011;23125;48.156;15.954;2023-06-14T08:22:20;4.60;;;2.47;;
37231;SDS011;23125;48.156;15.954;2023-06-14T08:24:47;3.35;;;2.60;;
37231;SDS011;23125;48.156;15.954;2023-06-14T08:27:13;5.95;;;2.58;;
37231;SDS011;23125;48.156;15.954;2023-06-14T08:29:40;3.08;;;2.63;;
37231;SDS011;23125;48.156;15.954;2023-06-14T08:32:06;5.57;;;2.30;;
37231;SDS011;23125;48.156;15.954;2023-06-14T08:34:32;2.78;;;2.42;;
37231;SDS011;23125;48.156;15.954;2023-06-14T08:36:58;3.60;;;2.53;;
37231;SDS011;23125;48.156;15.954;2023-06-14T08:39:24;3.40;;;2.47;;
37231;SDS011;23125;48.156;15.954;2023-06-14T08:41:50;3.47;;;2.60;;
37231;SDS011;23125;48.156;15.954;2023-06-14T08:44:18;2.50;;;2.30;;
37231;SDS011;23125;48.156;15.954;2023-06-14T08:46:44;2.13;;;1.92;;
37231;SDS011;23125;48.156;15.954;2023-06-14T08:49:12;3.40;;;2.25;;
37231;SDS011;23125;48.156;15.954;2023-06-14T08:51:41;3.15;;;2.38;;
37231;SDS011;23125;48.156;15.954;2023-06-14T08:54:09;3.30;;;2.42;;
37231;SDS011;23125;48.156;15.954;2023-06-14T08:56:39;3.72;;;2.55;;
37231;SDS011;23125;48.156;15.954;2023-06-14T08:59:06;3.65;;;2.17;;
37231;SDS011;23125;48.156;15.954;2023-06-14T09:01:35;3.15;;;2.38;;
37231;SDS011;23125;48.156;15.954;2023-06-14T09:04:02;5.07;;;2.55;;
37231;SDS011;23125;48.156;15.954;2023-06-14T09:06:30;4.68;;;2.28;;
37231;SDS011;23125;48.156;15.954;2023-06-14T09:08:58;2.75;;;2.40;;
37231;SDS011;23125;48.156;15.954;2023-06-14T09:11:24;3.78;;;2.38;;
37231;SDS011;23125;48.156;15.954;2023-06-14T09:13:52;3.05;;;2.42;;
37231;SDS011;23125;48.156;15.954;2023-06-14T09:16:18;2.90;;;2.60;;
37231;SDS011;23125;48.156;15.954;2023-06-14T09:18:44;4.05;;;2.45;;
37231;SDS011;23125;48.156;15.954;2023-06-14T09:21:15;2.85;;;2.47;;
37231;SDS011;23125;48.156;15.954;2023-06-14T09:23:43;3.03;;;2.60;;
37231;SDS011;23125;48.156;15.954;2023-06-14T09:26:11;5.37;;;2.67;;
37231;SDS011;23125;48.156;15.954;2023-06-14T09:28:44;3.20;;;2.78;;
37231;SDS011;23125;48.156;15.954;2023-06-14T09:31:15;3.85;;;2.40;;
37231;SDS011;23125;48.156;15.954;2023-06-14T09:33:46;4.18;;;2.55;;
37231;SDS011;23125;48.156;15.954;2023-06-14T09:36:17;4.75;;;2.35;;
37231;SDS011;23125;48.156;15.954;2023-06-14T09:41:32;6.30;;;2.70;;
37231;SDS011;23125;48.156;15.954;2023-06-14T09:44:00;3.60;;;2.53;;
37231;SDS011;23125;48.156;15.954;2023-06-14T09:46:28;3.08;;;2.50;;
37231;SDS011;23125;48.156;15.954;2023-06-14T09:48:58;4.35;;;2.35;;
37231;SDS011;23125;48.156;15.954;2023-06-14T09:51:26;4.68;;;2.30;;
37231;SDS011;23125;48.156;15.954;2023-06-14T09:53:53;4.22;;;2.30;;
37231;SDS011;23125;48.156;15.954;2023-06-14T09:56:41;3.67;;;2.25;;
37231;SDS011;23125;48.156;15.954;2023-06-14T09:59:09;3.72;;;2.40;;
37231;SDS011;23125;48.156;15.954;2023-06-14T10:01:43;2.70;;;2.20;;
37231;SDS011;23125;48.156;15.954;2023-06-14T10:04:11;3.28;;;2.15;;
37231;SDS011;23125;48.156;15.954;2023-06-14T10:06:40;3.78;;;2.83;;
37231;SDS011;23125;48.156;15.954;2023-06-14T10:09:08;3.65;;;2.47;;
37231;SDS011;23125;48.156;15.954;2023-06-14T10:11:35;3.17;;;2.30;;
37231;SDS011;23125;48.156;15.954;2023-06-14T10:14:03;2.55;;;2.20;;
37231;SDS011;23125;48.156;15.954;2023-06-14T10:16:31;3.28;;;2.33;;
37231;SDS011;23125;48.156;15.954;2023-06-14T10:19:48;4.00;;;2.72;;
37231;SDS011;23125;48.156;15.954;2023-06-14T10:22:08;2.40;;;2.10;;
37231;SDS011;23125;48.156;15.954;2023-06-14T10:24:39;3.00;;;2.10;;
37231;SDS011;23125;48.156;15.954;2023-06-14T10:27:08;4.55;;;2.25;;
37231;SDS011;23125;48.156;15.954;2023-06-14T10:32:26;2.85;;;2.00;;
37231;SDS011;23125;48.156;15.954;2023-06-14T10:34:57;2.90;;;2.33;;
37231;SDS011;23125;48.156;15.954;2023-06-14T10:37:29;2.67;;;2.28;;
37231;SDS011;23125;48.156;15.954;2023-06-14T10:39:55;5.57;;;2.92;;
37231;SDS011;23125;48.156;15.954;2023-06-14T10:42:21;3.67;;;2.50;;
37231;SDS011;23125;48.156;15.954;2023-06-14T10:44:55;3.28;;;2.75;;
37231;SDS011;23125;48.156;15.954;2023-06-14T10:47:31;3.53;;;2.42;;
37231;SDS011;23125;48.156;15.954;2023-06-14T10:50:07;2.90;;;2.60;;
37231;SDS011;23125;48.156;15.954;2023-06-14T10:52:38;3.10;;;2.45;;
37231;SDS011;23125;48.156;15.954;2023-06-14T10:55:15;3.08;;;2.50;;
37231;SDS011;23125;48.156;15.954;2023-06-14T10:57:47;3.75;;;2.63;;
37231;SDS011;23125;48.156;15.954;2023-06-14T11:00:22;4.03;;;2.38;;
37231;SDS011;23125;48.156;15.954;2023-06-14T11:05:50;3.22;;;2.38;;
37231;SDS011;23125;48.156;15.954;2023-06-14T11:11:17;3.50;;;2.67;;
37231;SDS011;23125;48.156;15.954;2023-06-14T11:13:47;3.33;;;2.10;;
37231;SDS011;23125;48.156;15.954;2023-06-14T11:16:16;3.92;;;2.55;;
37231;SDS011;23125;48.156;15.954;2023-06-14T11:18:44;3.80;;;2.60;;
37231;SDS011;23125;48.156;15.954;2023-06-14T11:21:11;4.25;;;2.55;;
37231;SDS011;23125;48.156;15.954;2023-06-14T11:23:40;2.72;;;2.38;;
37231;SDS011;23125;48.156;15.954;2023-06-14T11:26:06;3.33;;;2.78;;
37231;SDS011;23125;48.156;15.954;2023-06-14T11:28:36;4.05;;;2.42;;
37231;SDS011;23125;48.156;15.954;2023-06-14T11:31:06;3.17;;;2.20;;
37231;SDS011;23125;48.156;15.954;2023-06-14T11:33:33;3.50;;;2.05;;
37231;SDS011;23125;48.156;15.954;2023-06-14T11:36:02;3.80;;;2.35;;
37231;SDS011;23125;48.156;15.954;2023-06-14T11:38:36;3.67;;;2.45;;
37231;SDS011;23125;48.156;15.954;2023-06-14T11:41:05;5.65;;;2.45;;
37231;SDS011;23125;48.156;15.954;2023-06-14T11:43:31;5.53;;;2.55;;
37231;SDS011;23125;48.156;15.954;2023-06-14T11:45:59;4.88;;;2.72;;
37231;SDS011;23125;48.156;15.954;2023-06-14T11:48:35;5.40;;;2.05;;
37231;SDS011;23125;48.156;15.954;2023-06-14T11:51:02;3.20;;;2.38;;
37231;SDS011;23125;48.156;15.954;2023-06-14T11:53:28;3.50;;;2.00;;
37231;SDS011;23125;48.156;15.954;2023-06-14T11:55:54;4.97;;;2.38;;
37231;SDS011;23125;48.156;15.954;2023-06-14T11:58:20;3.45;;;2.50;;
37231;SDS011;23125;48.156;15.954;2023-06-14T12:00:48;3.40;;;2.30;;
37231;SDS011;23125;48.156;15.954;2023-06-14T12:03:15;2.92;;;2.15;;
37231;SDS011;23125;48.156;15.954;2023-06-14T12:05:41;2.50;;;1.92;;
37231;SDS011;23125;48.156;15.954;2023-06-14T12:08:07;3.63;;;2.40;;
37231;SDS011;23125;48.156;15.954;2023-06-14T12:10:39;4.00;;;1.83;;
37231;SDS011;23125;48.156;15.954;2023-06-14T12:13:09;3.92;;;2.78;;
37231;SDS011;23125;48.156;15.954;2023-06-14T12:15:35;3.25;;;2.38;;
37231;SDS011;23125;48.156;15.954;2023-06-14T12:18:04;3.97;;;2.65;;
37231;SDS011;23125;48.156;15.954;2023-06-14T12:20:34;2.65;;;2.33;;
37231;SDS011;23125;48.156;15.954;2023-06-14T12:23:02;2.90;;;2.13;;
37231;SDS011;23125;48.156;15.954;2023-06-14T12:25:33;3.38;;;2.47;;
37231;SDS011;23125;48.156;15.954;2023-06-14T12:28:04;5.15;;;2.60;;
37231;SDS011;23125;48.156;15.954;2023-06-14T12:30:32;4.07;;;2.67;;
37231;SDS011;23125;48.156;15.954;2023-06-14T12:32:58;4.20;;;3.20;;
37231;SDS011;23125;48.156;15.954;2023-06-14T12:35:24;3.88;;;2.53;;
37231;SDS011;23125;48.156;15.954;2023-06-14T12:37:50;4.10;;;2.65;;
37231;SDS011;23125;48.156;15.954;2023-06-14T12:40:15;4.40;;;2.53;;
37231;SDS011;23125;48.156;15.954;2023-06-14T12:42:42;3.22;;;2.55;;
37231;SDS011;23125;48.156;15.954;2023-06-14T12:45:10;3.22;;;2.55;;
37231;SDS011;23125;48.156;15.954;2023-06-14T12:47:36;3.30;;;2.38;;
37231;SDS011;23125;48.156;15.954;2023-06-14T12:50:02;3.13;;;2.42;;
37231;SDS011;23125;48.156;15.954;2023-06-14T12:52:28;2.88;;;2.47;;
37231;SDS011;23125;48.156;15.954;2023-06-14T12:54:53;3.72;;;2.50;;
37231;SDS011;23125;48.156;15.954;2023-06-14T12:57:19;4.15;;;2.65;;
37231;SDS011;23125;48.156;15.954;2023-06-14T12:59:45;4.85;;;2.70;;
37231;SDS011;23125;48.156;15.954;2023-06-14T13:02:12;3.45;;;3.10;;
37231;SDS011;23125;48.156;15.954;2023-06-14T13:04:42;3.47;;;2.92;;
37231;SDS011;23125;48.156;15.954;2023-06-14T13:07:08;3.13;;;2.50;;
37231;SDS011;23125;48.156;15.954;2023-06-14T13:09:36;3.38;;;2.70;;
37231;SDS011;23125;48.156;15.954;2023-06-14T13:12:02;4.22;;;2.60;;
37231;SDS011;23125;48.156;15.954;2023-06-14T13:14:28;3.85;;;2.80;;
37231;SDS011;23125;48.156;15.954;2023-06-14T13:16:54;5.50;;;3.10;;
37231;SDS011;23125;48.156;15.954;2023-06-14T13:19:20;3.60;;;2.78;;
37231;SDS011;23125;48.156;15.954;2023-06-14T13:21:47;4.32;;;3.45;;
37231;SDS011;23125;48.156;15.954;2023-06-14T13:24:13;5.00;;;2.63;;
37231;SDS011;23125;48.156;15.954;2023-06-14T13:26:39;5.70;;;2.60;;
37231;SDS011;23125;48.156;15.954;2023-06-14T13:29:05;3.65;;;3.00;;
37231;SDS011;23125;48.156;15.954;2023-06-14T13:31:31;3.17;;;2.70;;
37231;SDS011;23125;48.156;15.954;2023-06-14T13:33:57;5.63;;;2.75;;
37231;SDS011;23125;48.156;15.954;2023-06-14T13:36:23;3.38;;;2.58;;
37231;SDS011;23125;48.156;15.954;2023-06-14T13:38:48;5.18;;;2.50;;
37231;SDS011;23125;48.156;15.954;2023-06-14T13:41:16;4.53;;;2.70;;
37231;SDS011;23125;48.156;15.954;2023-06-14T13:43:42;3.92;;;2.42;;
37231;SDS011;23125;48.156;15.954;2023-06-14T13:46:08;4.80;;;2.55;;
37231;SDS011;23125;48.156;15.954;2023-06-14T13:48:33;2.97;;;2.67;;
37231;SDS011;23125;48.156;15.954;2023-06-14T13:51:00;6.38;;;2.78;;
37231;SDS011;23125;48.156;15.954;2023-06-14T13:53:26;4.15;;;2.63;;
37231;SDS011;23125;48.156;15.954;2023-06-14T13:55:52;3.35;;;2.50;;
37231;SDS011;23125;48.156;15.954;2023-06-14T13:58:18;4.22;;;2.70;;
37231;SDS011;23125;48.156;15.954;2023-06-14T14:00:44;2.85;;;2.53;;
37231;SDS011;23125;48.156;15.954;2023-06-14T14:03:10;7.45;;;2.60;;
37231;SDS011;23125;48.156;15.954;2023-06-14T14:05:36;5.22;;;3.25;;
37231;SDS011;23125;48.156;15.954;2023-06-14T14:08:02;2.97;;;2.67;;
37231;SDS011;23125;48.156;15.954;2023-06-14T14:10:29;3.33;;;2.65;;
37231;SDS011;23125;48.156;15.954;2023-06-14T14:12:55;3.10;;;2.53;;
37231;SDS011;23125;48.156;15.954;2023-06-14T14:15:22;4.93;;;2.67;;
37231;SDS011;23125;48.156;15.954;2023-06-14T14:17:47;3.65;;;2.53;;
37231;SDS011;23125;48.156;15.954;2023-06-14T14:20:13;4.57;;;3.05;;
37231;SDS011;23125;48.156;15.954;2023-06-14T14:22:41;3.63;;;2.70;;
37231;SDS011;23125;48.156;15.954;2023-06-14T14:25:08;4.25;;;3.10;;
37231;SDS011;23125;48.156;15.954;2023-06-14T14:27:35;3.80;;;2.90;;
37231;SDS011;23125;48.156;15.954;2023-06-14T14:30:01;3.70;;;2.55;;
37231;SDS011;23125;48.156;15.954;2023-06-14T14:32:27;4.15;;;2.55;;
37231;SDS011;23125;48.156;15.954;2023-06-14T14:34:53;3.30;;;2.60;;
37231;SDS011;23125;48.156;15.954;2023-06-14T14:37:19;4.22;;;2.30;;
37231;SDS011;23125;48.156;15.954;2023-06-14T14:39:44;5.38;;;2.15;;
37231;SDS011;23125;48.156;15.954;2023-06-14T14:42:11;4.68;;;2.60;;
37231;SDS011;23125;48.156;15.954;2023-06-14T14:44:38;6.13;;;2.80;;
37231;SDS011;23125;48.156;15.954;2023-06-14T14:47:05;5.18;;;2.53;;
37231;SDS011;23125;48.156;15.954;2023-06-14T14:49:31;2.47;;;2.08;;
37231;SDS011;23125;48.156;15.954;2023-06-14T14:51:57;3.00;;;2.53;;
37231;SDS011;23125;48.156;15.954;2023-06-14T14:54:23;3.92;;;2.80;;